sensor_id;sensor_type;location;lat;lon;timestamp;pressure;altitude;pressure_sealevel;temperature;humidity
75424;BME280;64005;55.160;36.002;2023-10-08T05:49:00;96244.06;;;4.27;78.39
75424;BME280;64005;55.160;36.002;2023-10-08T05:51:30;96241.97;;;4.21;79.61
75424;BME280;64005;55.160;36.002;2023-10-08T05:54:12;96258.13;;;4.22;79.45
75424;BME280;64005;55.160;36.002;2023-10-08T05:57:02;96249.88;;;4.22;80.16
75424;BME280;64005;55.160;36.002;2023-10-08T05:59:32;96247.97;;;4.26;80.51
75424;BME280;64005;55.160;36.002;2023-10-08T06:02:05;96260.16;;;4.25;80.42
75424;BME280;64005;55.160;36.002;2023-10-08T06:04:46;96251.47;;;4.23;80.00
75424;BME280;64005;55.160;36.002;2023-10-08T06:07:37;96247.63;;;4.28;79.59
75424;BME280;64005;55.160;36.002;2023-10-08T06:10:14;96253.06;;;4.24;79.70
75424;BME280;64005;55.160;36.002;2023-10-08T06:13:08;96249.16;;;4.25;79.32
75424;BME280;64005;55.160;36.002;2023-10-08T06:15:40;96227.00;;;4.18;79.76
75424;BME280;64005;55.160;36.002;2023-10-08T06:18:14;96251.53;;;4.27;78.40
75424;BME280;64005;55.160;36.002;2023-10-08T06:20:42;96247.31;;;4.33;79.77
75424;BME280;64005;55.160;36.002;2023-10-08T06:23:14;96267.47;;;4.37;79.54
75424;BME280;64005;55.160;36.002;2023-10-08T06:25:47;96263.91;;;4.36;79.16
75424;BME280;64005;55.160;36.002;2023-10-08T06:28:20;96264.41;;;4.42;79.26
75424;BME280;64005;55.160;36.002;2023-10-08T06:30:48;96264.47;;;4.46;79.39
75424;BME280;64005;55.160;36.002;2023-10-08T06:33:19;96260.66;;;4.50;79.20
75424;BME280;64005;55.160;36.002;2023-10-08T06:35:49;96257.00;;;4.46;79.04
75424;BME280;64005;55.160;36.002;2023-10-08T06:38:28;96273.91;;;4.45;78.62
75424;BME280;64005;55.160;36.002;2023-10-08T06:40:56;96273.16;;;4.48;78.63
75424;BME280;64005;55.160;36.002;2023-10-08T06:43:25;96268.09;;;4.50;78.20
75424;BME280;64005;55.160;36.002;2023-10-08T06:45:52;96264.56;;;4.49;79.11
75424;BME280;64005;55.160;36.002;2023-10-08T06:48:24;96265.22;;;4.43;77.18
75424;BME280;64005;55.160;36.002;2023-10-08T06:50:56;96281.63;;;4.39;77.71
75424;BME280;64005;55.160;36.002;2023-10-08T06:53:23;96297.22;;;4.31;78.53
75424;BME280;64005;55.160;36.002;2023-10-08T06:55:50;96257.03;;;4.27;78.58
75424;BME280;64005;55.160;36.002;2023-10-08T06:58:22;96282.28;;;4.32;77.98
75424;BME280;64005;55.160;36.002;2023-10-08T07:00:50;96265.78;;;4.32;77.88
75424;BME280;64005;55.160;36.002;2023-10-08T07:03:18;96275.72;;;4.37;76.88
75424;BME280;64005;55.160;36.002;2023-10-08T07:05:47;96271.06;;;4.41;77.54
75424;BME280;64005;55.160;36.002;2023-10-08T07:08:26;96258.97;;;4.46;77.42
75424;BME280;64005;55.160;36.002;2023-10-08T07:10:55;96269.31;;;4.52;78.29
75424;BME280;64005;55.160;36.002;2023-10-08T07:13:23;96262.00;;;4.60;78.46
75424;BME280;64005;55.160;36.002;2023-10-08T07:15:51;96287.66;;;4.64;77.32
75424;BME280;64005;55.160;36.002;2023-10-08T07:18:19;96279.69;;;4.59;77.79
75424;BME280;64005;55.160;36.002;2023-10-08T07:20:51;96286.63;;;4.53;76.66
75424;BME280;64005;55.160;36.002;2023-10-08T07:23:20;96282.22;;;4.48;77.09
75424;BME280;64005;55.160;36.002;2023-10-08T07:25:58;96284.47;;;4.43;77.04
75424;BME280;64005;55.160;36.002;2023-10-08T07:28:36;96284.84;;;4.41;76.79
75424;BME280;64005;55.160;36.002;2023-10-08T07:31:05;96294.63;;;4.38;76.53
75424;BME280;64005;55.160;36.002;2023-10-08T07:33:35;96291.13;;;4.42;77.24
75424;BME280;64005;55.160;36.002;2023-10-08T07:36:03;96313.25;;;4.45;76.46
75424;BME280;64005;55.160;36.002;2023-10-08T07:38:40;96295.41;;;4.39;76.69
75424;BME280;64005;55.160;36.002;2023-10-08T07:41:09;96295.00;;;4.37;76.95
75424;BME280;64005;55.160;36.002;2023-10-08T07:43:40;96301.34;;;4.41;76.72
75424;BME280;64005;55.160;36.002;2023-10-08T07:46:07;96299.41;;;4.42;76.78
75424;BME280;64005;55.160;36.002;2023-10-08T07:48:35;96292.09;;;4.49;77.33
75424;BME280;64005;55.160;36.002;2023-10-08T07:51:02;96312.72;;;4.59;77.37
75424;BME280;64005;55.160;36.002;2023-10-08T07:53:29;96301.69;;;4.59;77.00
75424;BME280;64005;55.160;36.002;2023-10-08T07:56:04;96329.97;;;4.56;76.41
75424;BME280;64005;55.160;36.002;2023-10-08T07:58:35;96318.00;;;4.48;76.79
75424;BME280;64005;55.160;36.002;2023-10-08T08:01:03;96318.50;;;4.34;76.40
75424;BME280;64005;55.160;36.002;2023-10-08T08:03:32;96311.78;;;4.32;76.81
75424;BME280;64005;55.160;36.002;2023-10-08T08:06:00;96321.56;;;4.29;76.50
75424;BME280;64005;55.160;36.002;2023-10-08T08:08:27;96333.81;;;4.32;77.02
75424;BME280;64005;55.160;36.002;2023-10-08T08:10:54;96330.81;;;4.40;76.96
75424;BME280;64005;55.160;36.002;2023-10-08T08:13:26;96340.03;;;4.48;76.65
75424;BME280;64005;55.160;36.002;2023-10-08T08:15:56;96336.84;;;4.46;76.63
75424;BME280;64005;55.160;36.002;2023-10-08T08:18:26;96341.53;;;4.46;76.07
75424;BME280;64005;55.160;36.002;2023-10-08T08:21:01;96334.09;;;4.46;76.47
75424;BME280;64005;55.160;36.002;2023-10-08T08:23:29;96341.94;;;4.44;76.26
75424;BME280;64005;55.160;36.002;2023-10-08T08:25:57;96340.63;;;4.38;76.10
75424;BME280;64005;55.160;36.002;2023-10-08T08:28:37;96336.13;;;4.30;76.04
75424;BME280;64005;55.160;36.002;2023-10-08T08:31:06;96336.97;;;4.34;76.70
75424;BME280;64005;55.160;36.002;2023-10-08T08:48:28;96352.59;;;5.07;74.82
75424;BME280;64005;55.160;36.002;2023-10-08T08:50:57;96360.31;;;4.98;75.58
75424;BME280;64005;55.160;36.002;2023-10-08T08:53:24;96365.31;;;4.92;75.76
75424;BME280;64005;55.160;36.002;2023-10-08T09:33:12;96380.38;;;4.60;74.16
75424;BME280;64005;55.160;36.002;2023-10-08T09:35:41;96384.56;;;4.54;75.05
75424;BME280;64005;55.160;36.002;2023-10-08T09:57:09;96368.03;;;4.34;75.52
75424;BME280;64005;55.160;36.002;2023-10-08T09:59:37;96394.00;;;4.53;75.50
75424;BME280;64005;55.160;36.002;2023-10-08T10:02:05;96384.03;;;4.64;75.37
75424;BME280;64005;55.160;36.002;2023-10-08T10:04:35;96393.50;;;4.66;75.31
75424;BME280;64005;55.160;36.002;2023-10-08T10:07:09;96390.09;;;4.73;75.43
75424;BME280;64005;55.160;36.002;2023-10-08T10:09:39;96401.56;;;4.75;75.48
75424;BME280;64005;55.160;36.002;2023-10-08T10:12:31;96401.72;;;4.82;75.58
75424;BME280;64005;55.160;36.002;2023-10-08T10:15:00;96398.31;;;4.89;75.40
75424;BME280;64005;55.160;36.002;2023-10-08T10:21:28;96387.94;;;4.82;75.17
75424;BME280;64005;55.160;36.002;2023-10-08T10:23:57;96404.47;;;4.82;75.03
75424;BME280;64005;55.160;36.002;2023-10-08T10:26:26;96415.47;;;4.82;75.06
75424;BME280;64005;55.160;36.002;2023-10-08T10:32:13;96411.41;;;4.76;74.62
75424;BME280;64005;55.160;36.002;2023-10-08T10:34:42;96413.06;;;4.80;74.62
75424;BME280;64005;55.160;36.002;2023-10-08T10:37:10;96414.69;;;4.82;75.12
75424;BME280;64005;55.160;36.002;2023-10-08T10:39:54;96429.59;;;4.80;74.92
75424;BME280;64005;55.160;36.002;2023-10-08T10:48:55;96428.22;;;4.71;74.39
75424;BME280;64005;55.160;36.002;2023-10-08T10:51:42;96425.38;;;4.67;75.05
75424;BME280;64005;55.160;36.002;2023-10-08T10:54:08;96418.03;;;4.71;74.93
75424;BME280;64005;55.160;36.002;2023-10-08T10:56:36;96427.69;;;4.65;74.33
75424;BME280;64005;55.160;36.002;2023-10-08T10:59:08;96432.50;;;4.68;75.05
75424;BME280;64005;55.160;36.002;2023-10-08T11:02:01;96432.53;;;4.53;73.63
75424;BME280;64005;55.160;36.002;2023-10-08T11:04:35;96418.41;;;4.54;74.54
75424;BME280;64005;55.160;36.002;2023-10-08T11:07:13;96433.34;;;4.53;74.67
75424;BME280;64005;55.160;36.002;2023-10-08T11:09:44;96420.72;;;4.52;74.13
75424;BME280;64005;55.160;36.002;2023-10-08T11:12:37;96406.09;;;4.48;73.66
75424;BME280;64005;55.160;36.002;2023-10-08T11:15:12;96414.06;;;4.53;73.73
75424;BME280;64005;55.160;36.002;2023-10-08T11:17:41;96405.31;;;4.67;74.05
75424;BME280;64005;55.160;36.002;2023-10-08T11:20:25;96401.13;;;4.73;73.14
75424;BME280;64005;55.160;36.002;2023-10-08T11:22:52;96394.16;;;4.79;74.45
75424;BME280;64005;55.160;36.002;2023-10-08T11:25:21;96415.41;;;4.78;74.15
75424;BME280;64005;55.160;36.002;2023-10-08T11:27:53;96424.09;;;4.80;74.13
75424;BME280;64005;55.160;36.002;2023-10-08T11:30:27;96428.44;;;4.82;73.73
75424;BME280;64005;55.160;36.002;2023-10-08T11:32:57;96424.84;;;4.77;73.43
75424;BME280;64005;55.160;36.002;2023-10-08T11:35:26;96425.31;;;4.64;72.76
75424;BME280;64005;55.160;36.002;2023-10-08T11:37:59;96420.31;;;4.50;73.47
75424;BME280;64005;55.160;36.002;2023-10-08T11:40:27;96422.25;;;4.50;73.31
75424;BME280;64005;55.160;36.002;2023-10-08T11:42:55;96421.00;;;4.47;72.98
75424;BME280;64005;55.160;36.002;2023-10-08T11:45:24;96427.66;;;4.46;73.39
75424;BME280;64005;55.160;36.002;2023-10-08T11:47:53;96428.59;;;4.34;72.59
75424;BME280;64005;55.160;36.002;2023-10-08T11:50:27;96418.16;;;4.24;72.91
75424;BME280;64005;55.160;36.002;2023-10-08T11:52:58;96446.72;;;4.20;73.30
75424;BME280;64005;55.160;36.002;2023-10-08T11:55:29;96409.56;;;4.10;72.96
75424;BME280;64005;55.160;36.002;2023-10-08T11:58:00;96422.00;;;4.04;73.60
75424;BME280;64005;55.160;36.002;2023-10-08T12:00:36;96433.00;;;4.04;72.73
75424;BME280;64005;55.160;36.002;2023-10-08T12:03:10;96424.66;;;4.00;72.91
75424;BME280;64005;55.160;36.002;2023-10-08T12:05:39;96410.66;;;3.90;73.07
75424;BME280;64005;55.160;36.002;2023-10-08T12:08:13;96417.13;;;3.82;73.33
75424;BME280;64005;55.160;36.002;2023-10-08T12:10:42;96430.41;;;3.80;72.68
75424;BME280;64005;55.160;36.002;2023-10-08T12:13:11;96432.91;;;3.69;72.58
75424;BME280;64005;55.160;36.002;2023-10-08T12:15:39;96436.09;;;3.55;73.25
75424;BME280;64005;55.160;36.002;2023-10-08T12:18:07;96437.25;;;3.39;73.25
75424;BME280;64005;55.160;36.002;2023-10-08T12:20:52;96422.50;;;3.31;73.37
75424;BME280;64005;55.160;36.002;2023-10-08T12:23:19;96422.41;;;3.28;73.19
75424;BME280;64005;55.160;36.002;2023-10-08T12:25:51;96424.53;;;3.34;72.88
75424;BME280;64005;55.160;36.002;2023-10-08T12:28:18;96434.03;;;3.37;72.95
75424;BME280;64005;55.160;36.002;2023-10-08T12:30:46;96421.78;;;3.34;72.56
75424;BME280;64005;55.160;36.002;2023-10-08T12:33:14;96424.88;;;3.33;73.16
75424;BME280;64005;55.160;36.002;2023-10-08T12:35:43;96421.25;;;3.29;73.03
75424;BME280;64005;55.160;36.002;2023-10-08T12:38:12;96421.78;;;3.18;73.16
75424;BME280;64005;55.160;36.002;2023-10-08T12:40:39;96428.31;;;3.14;73.61
75424;BME280;64005;55.160;36.002;2023-10-08T12:43:14;96424.75;;;3.13;73.58
75424;BME280;64005;55.160;36.002;2023-10-08T12:45:45;96414.94;;;3.12;73.22
75424;BME280;64005;55.160;36.002;2023-10-08T12:48:21;96425.03;;;3.08;73.23
75424;BME280;64005;55.160;36.002;2023-10-08T12:50:50;96401.56;;;3.11;73.21
75424;BME280;64005;55.160;36.002;2023-10-08T12:53:25;96419.88;;;3.07;73.57
75424;BME280;64005;55.160;36.002;2023-10-08T12:55:59;96423.41;;;3.07;73.32
75424;BME280;64005;55.160;36.002;2023-10-08T12:58:43;96429.84;;;2.99;73.53
75424;BME280;64005;55.160;36.002;2023-10-08T13:01:16;96410.88;;;2.94;73.21
75424;BME280;64005;55.160;36.002;2023-10-08T13:03:45;96424.41;;;2.87;73.62
75424;BME280;64005;55.160;36.002;2023-10-08T13:06:15;96425.25;;;2.75;74.04
75424;BME280;64005;55.160;36.002;2023-10-08T13:08:49;96410.75;;;2.75;73.80
75424;BME280;64005;55.160;36.002;2023-10-08T13:11:18;96420.91;;;2.74;73.96
75424;BME280;64005;55.160;36.002;2023-10-08T13:13:49;96418.16;;;2.74;73.33
75424;BME280;64005;55.160;36.002;2023-10-08T13:16:16;96425.06;;;2.68;73.56
75424;BME280;64005;55.160;36.002;2023-10-08T13:18:44;96428.50;;;2.65;73.64
75424;BME280;64005;55.160;36.002;2023-10-08T13:21:11;96432.41;;;2.64;73.79
75424;BME280;64005;55.160;36.002;2023-10-08T13:23:38;96430.34;;;2.61;73.49
75424;BME280;64005;55.160;36.002;2023-10-08T13:26:08;96432.75;;;2.63;73.73
75424;BME280;64005;55.160;36.002;2023-10-08T13:28:35;96419.34;;;2.61;73.93
75424;BME280;64005;55.160;36.002;2023-10-08T13:31:03;96423.63;;;2.59;73.84
75424;BME280;64005;55.160;36.002;2023-10-08T13:33:36;96429.22;;;2.50;73.87
75424;BME280;64005;55.160;36.002;2023-10-08T13:36:06;96431.25;;;2.53;73.77
75424;BME280;64005;55.160;36.002;2023-10-08T13:38:36;96427.38;;;2.54;73.73
75424;BME280;64005;55.160;36.002;2023-10-08T13:41:03;96423.16;;;2.57;73.79
75424;BME280;64005;55.160;36.002;2023-10-08T13:43:34;96426.59;;;2.54;73.79
75424;BME280;64005;55.160;36.002;2023-10-08T13:46:02;96431.63;;;2.52;73.87
75424;BME280;64005;55.160;36.002;2023-10-08T13:48:32;96430.84;;;2.51;73.74
75424;BME280;64005;55.160;36.002;2023-10-08T13:51:01;96427.28;;;2.51;73.75
75424;BME280;64005;55.160;36.002;2023-10-08T13:53:30;96430.03;;;2.51;73.80
75424;BME280;64005;55.160;36.002;2023-10-08T13:55:59;96419.84;;;2.51;73.72
75424;BME280;64005;55.160;36.002;2023-10-08T13:58:28;96434.38;;;2.52;73.71
75424;BME280;64005;55.160;36.002;2023-10-08T14:01:02;96430.84;;;2.51;73.50
75424;BME280;64005;55.160;36.002;2023-10-08T14:03:47;96426.81;;;2.49;73.78
75424;BME280;64005;55.160;36.002;2023-10-08T14:06:19;96426.03;;;2.48;73.74
75424;BME280;64005;55.160;36.002;2023-10-08T14:08:48;96419.31;;;2.46;73.77
75424;BME280;64005;55.160;36.002;2023-10-08T14:11:19;96428.13;;;2.39;73.90
75424;BME280;64005;55.160;36.002;2023-10-08T14:13:49;96425.38;;;2.39;74.05
75424;BME280;64005;55.160;36.002;2023-10-08T14:16:18;96431.31;;;2.41;73.90
75424;BME280;64005;55.160;36.002;2023-10-08T14:18:49;96431.75;;;2.43;73.83
75424;BME280;64005;55.160;36.002;2023-10-08T14:21:20;96427.41;;;2.42;74.19
75424;BME280;64005;55.160;36.002;2023-10-08T14:23:49;96421.94;;;2.42;73.87
75424;BME280;64005;55.160;36.002;2023-10-08T14:26:18;96430.06;;;2.38;74.28
75424;BME280;64005;55.160;36.002;2023-10-08T14:28:48;96424.47;;;2.35;74.30
75424;BME280;64005;55.160;36.002;2023-10-08T14:31:20;96422.19;;;2.37;74.09
75424;BME280;64005;55.160;36.002;2023-10-08T14:33:50;96422.19;;;2.37;74.49
75424;BME280;64005;55.160;36.002;2023-10-08T14:36:31;96430.06;;;2.38;74.45
75424;BME280;64005;55.160;36.002;2023-10-08T14:39:16;96428.56;;;2.41;73.97
75424;BME280;64005;55.160;36.002;2023-10-08T14:42:01;96419.66;;;2.44;74.01
75424;BME280;64005;55.160;36.002;2023-10-08T14:44:57;96435.19;;;2.40;74.20
75424;BME280;64005;55.160;36.002;2023-10-08T14:47:27;96422.50;;;2.35;74.32
75424;BME280;64005;55.160;36.002;2023-10-08T14:49:54;96435.22;;;2.28;74.54
75424;BME280;64005;55.160;36.002;2023-10-08T14:52:22;96418.91;;;2.19;74.60
75424;BME280;64005;55.160;36.002;2023-10-08T14:54:50;96443.34;;;2.24;74.62
75424;BME280;64005;55.160;36.002;2023-10-08T14:57:17;96426.75;;;2.21;74.96
75424;BME280;64005;55.160;36.002;2023-10-08T14:59:44;96422.06;;;2.21;74.72
75424;BME280;64005;55.160;36.002;2023-10-08T15:02:11;96437.72;;;2.21;74.88
75424;BME280;64005;55.160;36.002;2023-10-08T15:04:40;96430.53;;;2.16;75.01
75424;BME280;64005;55.160;36.002;2023-10-08T15:07:07;96437.63;;;2.17;75.04
75424;BME280;64005;55.160;36.002;2023-10-08T15:09:37;96435.56;;;2.14;75.25
75424;BME280;64005;55.160;36.002;2023-10-08T15:12:05;96433.63;;;2.15;75.10
75424;BME280;64005;55.160;36.002;2023-10-08T15:14:33;96435.56;;;2.14;75.30
75424;BME280;64005;55.160;36.002;2023-10-08T15:17:00;96447.09;;;2.08;75.19
75424;BME280;64005;55.160;36.002;2023-10-08T15:19:28;96445.88;;;2.05;75.87
75424;BME280;64005;55.160;36.002;2023-10-08T15:21:56;96446.44;;;1.98;75.81
75424;BME280;64005;55.160;36.002;2023-10-08T15:24:24;96444.13;;;2.00;76.02
75424;BME280;64005;55.160;36.002;2023-10-08T15:26:52;96443.34;;;2.00;76.12
75424;BME280;64005;55.160;36.002;2023-10-08T15:29:35;96444.38;;;1.95;76.19
75424;BME280;64005;55.160;36.002;2023-10-08T15:32:03;96432.16;;;1.93;75.69
75424;BME280;64005;55.160;36.002;2023-10-08T15:34:30;96451.81;;;1.95;75.86
75424;BME280;64005;55.160;36.002;2023-10-08T15:36:59;96441.31;;;1.97;75.92
75424;BME280;64005;55.160;36.002;2023-10-08T15:39:45;96443.47;;;2.04;75.56
75424;BME280;64005;55.160;36.002;2023-10-08T15:42:13;96449.75;;;2.04;75.21
75424;BME280;64005;55.160;36.002;2023-10-08T15:44:48;96451.69;;;2.04;75.75
75424;BME280;64005;55.160;36.002;2023-10-08T15:47:15;96447.25;;;1.99;75.50
75424;BME280;64005;55.160;36.002;2023-10-08T15:49:43;96440.25;;;2.02;75.34
75424;BME280;64005;55.160;36.002;2023-10-08T15:52:12;96446.53;;;2.02;75.74
75424;BME280;64005;55.160;36.002;2023-10-08T15:55:12;96452.38;;;2.00;75.95
75424;BME280;64005;55.160;36.002;2023-10-08T15:57:39;96446.78;;;1.97;75.46
75424;BME280;64005;55.160;36.002;2023-10-08T16:00:07;96450.56;;;1.92;76.22
75424;BME280;64005;55.160;36.002;2023-10-08T16:02:35;96455.69;;;1.94;75.58
75424;BME280;64005;55.160;36.002;2023-10-08T16:05:02;96461.53;;;1.92;75.82
75424;BME280;64005;55.160;36.002;2023-10-08T16:07:32;96465.03;;;1.93;76.05
75424;BME280;64005;55.160;36.002;2023-10-08T16:09:59;96472.69;;;1.87;75.88
75424;BME280;64005;55.160;36.002;2023-10-08T16:12:26;96480.81;;;1.84;76.56
75424;BME280;64005;55.160;36.002;2023-10-08T16:14:53;96490.06;;;1.79;76.38
75424;BME280;64005;55.160;36.002;2023-10-08T16:17:20;96490.16;;;1.71;76.30
75424;BME280;64005;55.160;36.002;2023-10-08T16:19:47;96473.72;;;1.71;76.23
75424;BME280;64005;55.160;36.002;2023-10-08T16:22:14;96478.41;;;1.70;76.06
75424;BME280;64005;55.160;36.002;2023-10-08T16:24:43;96478.06;;;1.59;76.66
75424;BME280;64005;55.160;36.002;2023-10-08T16:27:10;96479.75;;;1.52;76.45
75424;BME280;64005;55.160;36.002;2023-10-08T16:29:37;96489.53;;;1.53;76.20
75424;BME280;64005;55.160;36.002;2023-10-08T16:32:04;96490.34;;;1.53;76.07
75424;BME280;64005;55.160;36.002;2023-10-08T16:34:32;96489.44;;;1.49;76.61
75424;BME280;64005;55.160;36.002;2023-10-08T16:37:00;96496.59;;;1.42;76.79
75424;BME280;64005;55.160;36.002;2023-10-08T16:39:27;96498.84;;;1.40;76.44
75424;BME280;64005;55.160;36.002;2023-10-08T16:41:57;96502.53;;;1.44;76.71
75424;BME280;64005;55.160;36.002;2023-10-08T16:44:24;96496.38;;;1.47;76.27
75424;BME280;64005;55.160;36.002;2023-10-08T16:46:51;96513.50;;;1.44;76.21
75424;BME280;64005;55.160;36.002;2023-10-08T16:49:55;96508.03;;;1.44;76.56
75424;BME280;64005;55.160;36.002;2023-10-08T16:52:22;96514.31;;;1.44;76.48
75424;BME280;64005;55.160;36.002;2023-10-08T16:54:50;96506.41;;;1.43;77.08
75424;BME280;64005;55.160;36.002;2023-10-08T16:57:33;96519.31;;;1.42;76.77
75424;BME280;64005;55.160;36.002;2023-10-08T17:00:00;96538.38;;;1.39;77.49
75424;BME280;64005;55.160;36.002;2023-10-08T17:02:41;96524.88;;;1.34;77.34
75424;BME280;64005;55.160;36.002;2023-10-08T17:05:09;96521.00;;;1.35;77.25
75424;BME280;64005;55.160;36.002;2023-10-08T17:07:40;96528.53;;;1.38;76.88
75424;BME280;64005;55.160;36.002;2023-10-08T17:10:08;96528.22;;;1.39;77.01
75424;BME280;64005;55.160;36.002;2023-10-08T17:12:38;96512.44;;;1.36;77.14
75424;BME280;64005;55.160;36.002;2023-10-08T17:15:06;96523.41;;;1.36;77.57
75424;BME280;64005;55.160;36.002;2023-10-08T17:17:35;96530.47;;;1.37;77.23
75424;BME280;64005;55.160;36.002;2023-10-08T17:20:03;96519.19;;;1.39;77.27
75424;BME280;64005;55.160;36.002;2023-10-08T17:23:02;96529.69;;;1.37;78.08
75424;BME280;64005;55.160;36.002;2023-10-08T17:25:32;96531.13;;;1.34;77.05
75424;BME280;64005;55.160;36.002;2023-10-08T17:28:00;96530.16;;;1.39;77.34
75424;BME280;64005;55.160;36.002;2023-10-08T17:30:27;96524.66;;;1.39;77.36
75424;BME280;64005;55.160;36.002;2023-10-08T17:32:57;96530.94;;;1.39;77.30
75424;BME280;64005;55.160;36.002;2023-10-08T17:35:27;96536.53;;;1.43;77.20
75424;BME280;64005;55.160;36.002;2023-10-08T17:37:54;96524.78;;;1.42;78.01
75424;BME280;64005;55.160;36.002;2023-10-08T17:40:22;96533.81;;;1.43;77.79
75424;BME280;64005;55.160;36.002;2023-10-08T17:42:50;96530.03;;;1.47;77.23
75424;BME280;64005;55.160;36.002;2023-10-08T17:45:38;96538.72;;;1.49;77.53
75424;BME280;64005;55.160;36.002;2023-10-08T17:48:11;96534.53;;;1.52;77.41
75424;BME280;64005;55.160;36.002;2023-10-08T17:50:38;96527.44;;;1.51;77.94
75424;BME280;64005;55.160;36.002;2023-10-08T17:53:25;96544.09;;;1.46;77.88
75424;BME280;64005;55.160;36.002;2023-10-08T17:55:52;96544.53;;;1.48;77.25
75424;BME280;64005;55.160;36.002;2023-10-08T17:58:37;96545.69;;;1.47;77.81
75424;BME280;64005;55.160;36.002;2023-10-08T18:03:43;96550.13;;;1.39;78.07
75424;BME280;64005;55.160;36.002;2023-10-08T18:06:13;96543.84;;;1.39;78.03
75424;BME280;64005;55.160;36.002;2023-10-08T18:08:41;96552.06;;;1.39;77.41
75424;BME280;64005;55.160;36.002;2023-10-08T18:11:08;96550.47;;;1.38;77.57
75424;BME280;64005;55.160;36.002;2023-10-08T18:13:36;96554.00;;;1.38;77.84
75424;BME280;64005;55.160;36.002;2023-10-08T18:16:22;96554.00;;;1.38;77.81
75424;BME280;64005;55.160;36.002;2023-10-08T18:18:51;96562.66;;;1.40;77.87
75424;BME280;64005;55.160;36.002;2023-10-08T18:21:21;96564.16;;;1.38;78.32
75424;BME280;64005;55.160;36.002;2023-10-08T18:23:48;96559.00;;;1.36;78.19
75424;BME280;64005;55.160;36.002;2023-10-08T18:26:16;96562.66;;;1.40;77.58
75424;BME280;64005;55.160;36.002;2023-10-08T18:28:43;96568.59;;;1.42;77.87
75424;BME280;64005;55.160;36.002;2023-10-08T18:31:10;96553.31;;;1.41;77.61
75424;BME280;64005;55.160;36.002;2023-10-08T18:33:39;96571.69;;;1.41;77.92
75424;BME280;64005;55.160;36.002;2023-10-08T18:36:10;96572.38;;;1.38;77.84
75424;BME280;64005;55.160;36.002;2023-10-08T18:38:43;96555.94;;;1.38;78.09
75424;BME280;64005;55.160;36.002;2023-10-08T18:41:11;96568.81;;;1.37;77.81
75424;BME280;64005;55.160;36.002;2023-10-08T18:43:40;96572.03;;;1.39;78.50
75424;BME280;64005;55.160;36.002;2023-10-08T18:46:09;96583.00;;;1.39;78.61
75424;BME280;64005;55.160;36.002;2023-10-08T18:48:36;96577.16;;;1.41;78.40
75424;BME280;64005;55.160;36.002;2023-10-08T18:51:09;96581.66;;;1.45;78.14
75424;BME280;64005;55.160;36.002;2023-10-08T18:53:36;96569.66;;;1.50;77.92
75424;BME280;64005;55.160;36.002;2023-10-08T18:56:23;96572.19;;;1.55;78.08
75424;BME280;64005;55.160;36.002;2023-10-08T18:58:50;96574.38;;;1.62;77.49
75424;BME280;64005;55.160;36.002;2023-10-08T19:01:17;96581.81;;;1.61;78.08
75424;BME280;64005;55.160;36.002;2023-10-08T19:03:45;96583.41;;;1.62;77.73
75424;BME280;64005;55.160;36.002;2023-10-08T19:06:14;96590.97;;;1.65;77.51
75424;BME280;64005;55.160;36.002;2023-10-08T19:08:41;96582.16;;;1.59;78.24
75424;BME280;64005;55.160;36.002;2023-10-08T19:11:24;96595.06;;;1.59;77.97
75424;BME280;64005;55.160;36.002;2023-10-08T19:13:52;96592.19;;;1.55;78.33
75424;BME280;64005;55.160;36.002;2023-10-08T19:16:19;96588.78;;;1.58;78.12
75424;BME280;64005;55.160;36.002;2023-10-08T19:18:46;96605.31;;;1.62;78.07
75424;BME280;64005;55.160;36.002;2023-10-08T19:21:18;96607.25;;;1.62;78.58
75424;BME280;64005;55.160;36.002;2023-10-08T19:23:51;96614.25;;;1.59;78.32
75424;BME280;64005;55.160;36.002;2023-10-08T19:26:18;96626.66;;;1.56;78.57
75424;BME280;64005;55.160;36.002;2023-10-08T19:28:52;96620.53;;;1.59;78.65
75424;BME280;64005;55.160;36.002;2023-10-08T19:31:28;96621.44;;;1.64;78.26
75424;BME280;64005;55.160;36.002;2023-10-08T19:33:59;96621.56;;;1.67;78.49
75424;BME280;64005;55.160;36.002;2023-10-08T19:36:29;96624.66;;;1.66;78.81
75424;BME280;64005;55.160;36.002;2023-10-08T19:38:57;96621.09;;;1.65;78.89
75424;BME280;64005;55.160;36.002;2023-10-08T19:42:00;96629.78;;;1.67;78.47
75424;BME280;64005;55.160;36.002;2023-10-08T19:44:54;96623.63;;;1.70;78.49
75424;BME280;64005;55.160;36.002;2023-10-08T19:47:24;96630.41;;;1.73;78.33
75424;BME280;64005;55.160;36.002;2023-10-08T19:50:00;96635.06;;;1.72;78.45
75424;BME280;64005;55.160;36.002;2023-10-08T19:52:32;96633.13;;;1.73;78.84
75424;BME280;64005;55.160;36.002;2023-10-08T19:54:59;96633.72;;;1.78;78.40
75424;BME280;64005;55.160;36.002;2023-10-08T19:57:27;96636.91;;;1.80;78.18
75424;BME280;64005;55.160;36.002;2023-10-08T19:59:54;96635.78;;;1.81;78.54
75424;BME280;64005;55.160;36.002;2023-10-08T20:02:21;96642.38;;;1.80;78.32
75424;BME280;64005;55.160;36.002;2023-10-08T20:04:48;96642.84;;;1.82;78.64
75424;BME280;64005;55.160;36.002;2023-10-08T20:07:15;96658.03;;;1.80;78.59
75424;BME280;64005;55.160;36.002;2023-10-08T20:09:54;96647.06;;;1.80;78.66
75424;BME280;64005;55.160;36.002;2023-10-08T20:12:22;96647.88;;;1.80;78.52
75424;BME280;64005;55.160;36.002;2023-10-08T20:14:49;96656.91;;;1.81;78.85
75424;BME280;64005;55.160;36.002;2023-10-08T20:17:16;96655.44;;;1.83;78.89
75424;BME280;64005;55.160;36.002;2023-10-08T20:19:44;96653.50;;;1.84;78.88
75424;BME280;64005;55.160;36.002;2023-10-08T20:22:11;96650.44;;;1.85;78.68
75424;BME280;64005;55.160;36.002;2023-10-08T20:24:38;96657.84;;;1.85;79.24
75424;BME280;64005;55.160;36.002;2023-10-08T20:27:06;96675.75;;;1.82;79.02
75424;BME280;64005;55.160;36.002;2023-10-08T20:29:34;96678.16;;;1.84;79.20
75424;BME280;64005;55.160;36.002;2023-10-08T20:32:01;96676.56;;;1.83;79.42
75424;BME280;64005;55.160;36.002;2023-10-08T20:34:39;96693.66;;;1.80;79.00
75424;BME280;64005;55.160;36.002;2023-10-08T20:37:07;96694.34;;;1.77;79.36